createdAt,value
2019-04-25T00:01:11.543Z,2.30
2019-04-25T00:03:40.428Z,2.20
2019-04-25T00:06:09.071Z,2.10
2019-04-25T00:08:37.342Z,1.50
2019-04-25T00:11:07.297Z,1.80
2019-04-25T00:13:35.279Z,1.90
2019-04-25T00:16:03.967Z,1.90
2019-04-25T00:18:31.939Z,2.17
2019-04-25T00:21:05.023Z,1.67
2019-04-25T00:23:33.797Z,1.57
2019-04-25T00:26:08.415Z,1.77
2019-04-25T00:28:36.278Z,2.00
2019-04-25T00:31:05.772Z,1.80
2019-04-25T00:33:33.463Z,1.93
2019-04-25T00:36:02.071Z,1.83
2019-04-25T00:38:31.863Z,1.40
2019-04-25T00:40:59.766Z,1.50
2019-04-25T00:43:27.501Z,1.60
2019-04-25T00:45:55.184Z,1.83
2019-04-25T00:48:22.885Z,1.77
2019-04-25T00:50:52.103Z,1.80
2019-04-25T00:53:21.219Z,1.43
2019-04-25T00:55:49.049Z,1.53
2019-04-25T00:58:54.155Z,1.33
2019-04-25T01:01:41.332Z,1.77
2019-04-25T01:04:09.228Z,1.50
2019-04-25T01:06:37.111Z,1.63
2019-04-25T01:09:08.072Z,1.80
2019-04-25T01:11:35.868Z,1.60
2019-04-25T01:14:03.571Z,1.90
2019-04-25T01:16:31.820Z,1.50
2019-04-25T01:18:59.743Z,1.57
2019-04-25T01:21:27.561Z,1.77
2019-04-25T01:23:55.780Z,1.87
2019-04-25T01:26:24.055Z,1.50
2019-04-25T01:28:51.873Z,1.90
2019-04-25T01:31:24.923Z,1.80
2019-04-25T01:33:54.396Z,1.60
2019-04-25T01:36:44.625Z,1.73
2019-04-25T01:39:27.217Z,1.60
2019-04-25T01:42:20.513Z,1.70
2019-04-25T01:44:49.494Z,1.47
2019-04-25T01:47:17.691Z,1.50
2019-04-25T01:49:45.468Z,1.53
2019-04-25T01:52:13.664Z,2.03
2019-04-25T01:54:41.449Z,1.70
2019-04-25T01:57:09.375Z,1.60
2019-04-25T01:59:37.175Z,2.03
2019-04-25T02:02:10.166Z,2.17
2019-04-25T02:04:37.882Z,1.90
2019-04-25T02:07:05.603Z,2.10
2019-04-25T02:09:33.791Z,2.40
2019-04-25T02:12:10.229Z,1.43
2019-04-25T02:14:38.087Z,1.80
2019-04-25T02:17:05.761Z,1.40
2019-04-25T02:19:33.920Z,0.90
2019-04-25T02:22:03.988Z,1.60
2019-04-25T02:24:33.749Z,1.47
2019-04-25T02:27:01.543Z,1.67
2019-04-25T02:29:29.215Z,1.43
2019-04-25T02:32:00.184Z,1.30
2019-04-25T02:34:26.389Z,1.63
2019-04-25T02:36:58.909Z,1.60
2019-04-25T02:39:25.396Z,1.30
2019-04-25T02:41:56.054Z,1.20
2019-04-25T02:44:24.761Z,1.60
2019-04-25T02:47:10.494Z,1.17
2019-04-25T02:49:58.955Z,1.33
2019-04-25T02:52:31.353Z,1.23
2019-04-25T02:55:00.426Z,1.17
2019-04-25T02:57:28.816Z,1.50
2019-04-25T02:59:57.526Z,1.10
2019-04-25T03:02:26.012Z,1.07
2019-04-25T03:04:54.557Z,1.10
2019-04-25T03:07:24.567Z,1.23
2019-04-25T03:10:10.279Z,1.40
2019-04-25T03:12:37.324Z,1.10
2019-04-25T03:15:10.952Z,1.10
2019-04-25T03:17:38.655Z,1.20
2019-04-25T03:20:31.628Z,1.00
2019-04-25T03:23:09.019Z,1.43
2019-04-25T03:25:36.144Z,1.20
2019-04-25T03:28:04.996Z,1.20
2019-04-25T03:30:35.475Z,1.13
2019-04-25T03:33:08.119Z,1.40
2019-04-25T03:35:33.236Z,1.43
2019-04-25T03:38:01.498Z,1.30
2019-04-25T03:40:29.959Z,1.10
2019-04-25T03:42:57.660Z,1.00
2019-04-25T03:45:25.367Z,1.00
2019-04-25T03:47:53.229Z,1.00
2019-04-25T03:50:20.901Z,1.20
2019-04-25T03:52:48.580Z,1.20
2019-04-25T03:55:16.256Z,1.03
2019-04-25T03:57:44.353Z,1.10
2019-04-25T04:00:14.508Z,1.33
2019-04-25T04:02:44.090Z,1.00
2019-04-25T04:05:13.557Z,1.00
2019-04-25T04:07:41.371Z,1.10
2019-04-25T04:10:09.952Z,1.30
2019-04-25T04:12:37.676Z,1.10
2019-04-25T04:15:06.746Z,1.00
2019-04-25T04:17:40.722Z,0.80
2019-04-25T04:20:43.576Z,0.80
2019-04-25T04:23:19.332Z,0.80
2019-04-25T04:25:47.148Z,0.80
2019-04-25T04:28:14.960Z,0.80
2019-04-25T04:30:43.574Z,0.80
2019-04-25T04:33:22.960Z,1.17
2019-04-25T04:35:41.615Z,1.23
2019-04-25T04:38:09.608Z,0.87
2019-04-25T04:40:37.409Z,1.00
2019-04-25T04:43:05.110Z,0.80
2019-04-25T04:45:34.367Z,1.33
2019-04-25T04:48:03.277Z,1.27
2019-04-25T04:50:31.204Z,1.30
2019-04-25T04:52:59.123Z,1.20
2019-04-25T04:55:26.809Z,1.30
2019-04-25T04:57:54.546Z,1.30
2019-04-25T05:00:24.647Z,1.30
2019-04-25T05:03:24.265Z,1.23
2019-04-25T05:06:10.930Z,1.10
2019-04-25T05:08:43.545Z,1.00
2019-04-25T05:11:12.312Z,1.30
2019-04-25T05:13:40.083Z,1.00
2019-04-25T05:16:07.896Z,1.17
2019-04-25T05:18:39.437Z,1.10
2019-04-25T05:21:05.176Z,1.27
2019-04-25T05:23:34.252Z,1.33
2019-04-25T05:26:02.308Z,1.77
2019-04-25T05:28:29.981Z,1.10
2019-04-25T05:31:16.824Z,1.30
2019-04-25T05:33:44.935Z,1.57
2019-04-25T05:36:15.000Z,1.37
2019-04-25T05:38:43.587Z,1.10
2019-04-25T05:41:31.253Z,1.20
2019-04-25T05:43:59.187Z,1.37
2019-04-25T05:46:26.863Z,1.20
2019-04-25T05:48:54.556Z,1.10
2019-04-25T05:51:23.944Z,1.00
2019-04-25T05:53:51.984Z,1.10
2019-04-25T05:56:20.119Z,1.23
2019-04-25T05:58:48.081Z,0.90
2019-04-25T06:01:17.116Z,1.20
2019-04-25T06:03:45.270Z,1.10
2019-04-25T06:06:13.410Z,1.10
2019-04-25T06:08:47.955Z,1.00
2019-04-25T06:11:29.159Z,1.37
2019-04-25T06:14:01.095Z,1.30
2019-04-25T06:16:35.503Z,0.90
2019-04-25T06:19:14.010Z,1.23
2019-04-25T06:21:37.384Z,1.10
2019-04-25T06:24:25.901Z,1.23
2019-04-25T06:27:16.470Z,1.00
2019-04-25T06:29:57.700Z,1.20
2019-04-25T06:32:15.826Z,1.20
2019-04-25T06:34:44.372Z,1.07
2019-04-25T06:37:13.908Z,1.02
2019-04-25T06:39:41.959Z,1.20
2019-04-25T06:42:09.683Z,1.17
2019-04-25T06:44:48.047Z,1.00
2019-04-25T06:47:34.083Z,1.20
2019-04-25T06:50:04.198Z,1.30
2019-04-25T06:52:32.190Z,2.03
2019-04-25T06:55:00.556Z,1.40
2019-04-25T06:57:29.402Z,1.43
2019-04-25T06:59:58.328Z,1.30
2019-04-25T07:02:27.291Z,1.70
2019-04-25T07:04:55.232Z,1.83
2019-04-25T07:07:25.275Z,1.50
2019-04-25T07:09:53.499Z,1.80
2019-04-25T07:12:24.102Z,1.43
2019-04-25T07:14:50.941Z,1.43
2019-04-25T07:18:34.367Z,1.70
2019-04-25T07:21:01.271Z,1.20
2019-04-25T07:23:29.714Z,1.03
2019-04-25T07:26:07.092Z,1.23
2019-04-25T07:28:53.915Z,1.10
2019-04-25T07:31:39.592Z,1.10
2019-04-25T07:34:14.451Z,1.47
2019-04-25T07:36:42.211Z,1.60
2019-04-25T07:39:10.916Z,1.30
2019-04-25T07:41:38.968Z,1.43
2019-04-25T07:44:07.087Z,1.30
2019-04-25T07:46:39.289Z,1.77
2019-04-25T07:49:04.729Z,1.20
2019-04-25T07:51:34.321Z,1.60
2019-04-25T07:54:01.987Z,1.30
2019-04-25T07:56:29.716Z,1.20
2019-04-25T07:58:57.529Z,1.33
2019-04-25T08:01:25.253Z,1.20
2019-04-25T08:03:53.764Z,1.50
2019-04-25T08:06:23.778Z,1.30
2019-04-25T08:08:51.632Z,1.50
2019-04-25T08:11:19.316Z,1.93
2019-04-25T08:14:18.250Z,1.07
2019-04-25T08:16:49.323Z,1.10
2019-04-25T08:19:17.783Z,1.40
2019-04-25T08:21:45.720Z,0.60
2019-04-25T08:24:14.602Z,0.93
2019-04-25T08:26:43.681Z,1.10
2019-04-25T08:29:12.908Z,0.60
2019-04-25T08:31:41.191Z,0.60
2019-04-25T08:34:08.867Z,0.67
2019-04-25T08:36:38.455Z,0.60
2019-04-25T08:39:06.932Z,0.60
2019-04-25T08:41:35.739Z,0.40
2019-04-25T08:44:07.586Z,1.00
2019-04-25T08:46:36.896Z,0.50
2019-04-25T08:49:27.870Z,0.50
2019-04-25T08:51:56.073Z,0.90
2019-04-25T08:54:35.061Z,1.17
2019-04-25T08:57:04.305Z,0.80
2019-04-25T08:59:49.166Z,0.77
2019-04-25T09:02:23.555Z,0.53
2019-04-25T09:05:09.337Z,0.60
2019-04-25T09:07:38.179Z,0.63
2019-04-25T09:10:07.038Z,0.50
2019-04-25T09:12:35.510Z,0.93
2019-04-25T09:15:05.551Z,0.90
2019-04-25T09:17:35.924Z,0.77
2019-04-25T09:20:05.515Z,0.77
2019-04-25T09:22:35.278Z,0.87
2019-04-25T09:25:03.832Z,0.80
2019-04-25T09:27:33.334Z,0.70
2019-04-25T09:30:01.104Z,0.73
2019-04-25T09:32:28.826Z,0.60
2019-04-25T09:34:56.509Z,0.60
2019-04-25T09:37:24.689Z,0.80
2019-04-25T09:40:13.990Z,1.37
2019-04-25T09:42:43.902Z,0.60
2019-04-25T09:45:43.872Z,0.70
2019-04-25T09:48:37.559Z,0.60
2019-04-25T09:51:24.668Z,0.70
2019-04-25T09:53:59.243Z,3.53
2019-04-25T09:56:31.495Z,0.70
2019-04-25T09:59:26.705Z,0.60
2019-04-25T10:01:48.262Z,0.50
2019-04-25T10:04:16.092Z,0.70
2019-04-25T10:06:45.047Z,0.63
2019-04-25T10:09:15.613Z,0.80
2019-04-25T10:11:44.772Z,0.60
2019-04-25T10:14:24.500Z,0.60
2019-04-25T10:16:53.887Z,0.70
2019-04-25T10:19:23.494Z,0.97
2019-04-25T10:21:53.440Z,1.10
2019-04-25T10:24:21.099Z,0.90
2019-04-25T10:26:48.799Z,0.57
2019-04-25T10:29:16.700Z,0.70
2019-04-25T10:31:45.215Z,0.80
2019-04-25T10:34:14.071Z,0.47
2019-04-25T10:36:42.220Z,0.70
2019-04-25T10:39:11.597Z,0.50
2019-04-25T10:41:40.168Z,1.10
2019-04-25T10:44:09.043Z,0.87
2019-04-25T10:46:36.864Z,1.17
2019-04-25T10:49:04.779Z,0.90
2019-04-25T10:51:34.155Z,0.80
2019-04-25T10:54:03.996Z,0.70
2019-04-25T10:56:33.369Z,0.53
2019-04-25T10:59:01.427Z,0.70
2019-04-25T11:01:29.910Z,1.20
2019-04-25T11:04:13.766Z,0.50
2019-04-25T11:06:41.886Z,0.60
2019-04-25T11:09:16.767Z,0.80
2019-04-25T11:11:44.466Z,0.60
2019-04-25T11:14:13.515Z,0.87
2019-04-25T11:16:42.724Z,0.73
2019-04-25T11:19:11.004Z,7.67
2019-04-25T11:21:38.728Z,5.77
2019-04-25T11:24:06.460Z,3.80
2019-04-25T11:26:34.672Z,1.07
2019-04-25T11:29:04.866Z,0.50
2019-04-25T11:31:37.986Z,0.87
2019-04-25T11:34:07.059Z,0.73
2019-04-25T11:36:34.787Z,0.80
2019-04-25T11:39:34.541Z,1.00
2019-04-25T11:42:08.063Z,0.90
2019-04-25T11:44:35.743Z,1.50
2019-04-25T11:47:07.122Z,0.90
2019-04-25T11:49:34.075Z,2.20
2019-04-25T11:52:03.141Z,2.43
2019-04-25T11:54:31.713Z,1.20
2019-04-25T11:57:18.855Z,0.70
2019-04-25T11:59:48.888Z,0.77
2019-04-25T12:02:16.224Z,1.30
2019-04-25T12:04:46.206Z,0.93
2019-04-25T12:07:14.322Z,0.70
2019-04-25T12:09:42.895Z,0.80
2019-04-25T12:12:11.649Z,1.20
2019-04-25T12:14:39.325Z,1.20
2019-04-25T12:17:07.111Z,0.97
2019-04-25T12:19:37.936Z,0.57
2019-04-25T12:22:04.376Z,0.90
2019-04-25T12:24:33.500Z,1.10
2019-04-25T12:27:01.485Z,0.80
2019-04-25T12:29:29.243Z,1.10
2019-04-25T12:31:57.277Z,0.90
2019-04-25T12:34:24.964Z,0.80
2019-04-25T12:36:54.312Z,0.60
2019-04-25T12:39:24.128Z,0.40
2019-04-25T12:41:51.974Z,0.80
2019-04-25T12:44:48.822Z,0.40
2019-04-25T12:47:19.731Z,0.80
2019-04-25T12:49:48.564Z,0.60
2019-04-25T12:52:16.508Z,0.80
2019-04-25T12:54:44.327Z,0.60
2019-04-25T12:57:14.090Z,0.50
2019-04-25T12:59:54.122Z,0.90
2019-04-25T13:02:21.019Z,1.10
2019-04-25T13:04:48.741Z,0.70
2019-04-25T13:07:19.309Z,0.60
2019-04-25T13:09:52.242Z,0.60
2019-04-25T13:12:19.991Z,1.00
2019-04-25T13:14:47.997Z,0.60
2019-04-25T13:17:15.686Z,0.70
2019-04-25T13:19:44.085Z,0.70
2019-04-25T13:22:12.302Z,0.73
2019-04-25T13:24:40.016Z,0.50
2019-04-25T13:27:15.540Z,0.50
2019-04-25T13:30:01.351Z,0.60
2019-04-25T13:33:06.560Z,0.60
2019-04-25T13:35:40.022Z,0.90
2019-04-25T13:38:08.611Z,0.70
2019-04-25T13:40:36.487Z,0.60
2019-04-25T13:43:05.211Z,0.50
2019-04-25T13:45:33.916Z,0.87
2019-04-25T13:48:03.347Z,0.30
2019-04-25T13:50:32.007Z,0.60
2019-04-25T13:53:03.323Z,0.57
2019-04-25T13:55:32.151Z,0.60
2019-04-25T13:58:00.271Z,0.47
2019-04-25T14:00:28.708Z,0.50
2019-04-25T14:02:56.521Z,0.43
2019-04-25T14:05:28.199Z,0.70
2019-04-25T14:07:56.247Z,0.60
2019-04-25T14:10:25.130Z,0.67
2019-04-25T14:12:53.858Z,0.60
2019-04-25T14:15:25.211Z,0.60
2019-04-25T14:18:11.095Z,0.50
2019-04-25T14:20:42.259Z,0.57
2019-04-25T14:23:12.871Z,0.80
2019-04-25T14:25:41.116Z,0.90
2019-04-25T14:28:09.377Z,0.70
2019-04-25T14:30:37.080Z,0.87
2019-04-25T14:33:07.924Z,1.00
2019-04-25T14:35:35.742Z,1.50
2019-04-25T14:38:04.072Z,1.57
2019-04-25T14:40:31.916Z,1.53
2019-04-25T14:43:00.121Z,0.97
2019-04-25T14:45:40.341Z,1.10
2019-04-25T14:47:57.455Z,1.30
2019-04-25T14:50:25.549Z,0.70
2019-04-25T14:52:53.303Z,1.10
2019-04-25T14:55:48.906Z,0.90
2019-04-25T14:58:17.421Z,0.90
2019-04-25T15:00:46.355Z,1.53
2019-04-25T15:03:14.134Z,1.40
2019-04-25T15:05:43.412Z,2.10
2019-04-25T15:08:11.810Z,1.50
2019-04-25T15:10:39.998Z,1.73
2019-04-25T15:13:09.467Z,1.23
2019-04-25T15:15:37.188Z,1.33
2019-04-25T15:18:05.273Z,1.83
2019-04-25T15:20:34.357Z,1.80
2019-04-25T15:23:02.152Z,1.47
2019-04-25T15:25:29.879Z,1.50
2019-04-25T15:27:57.567Z,1.50
2019-04-25T15:30:29.411Z,1.60
2019-04-25T15:32:57.372Z,1.70
2019-04-25T15:35:51.550Z,1.20
2019-04-25T15:38:31.808Z,1.40
2019-04-25T15:41:10.139Z,1.30
2019-04-25T15:43:50.490Z,1.57
2019-04-25T15:46:21.703Z,1.87
2019-04-25T15:48:49.403Z,2.40
2019-04-25T15:51:17.150Z,2.40
2019-04-25T15:53:44.929Z,2.07
2019-04-25T15:56:12.624Z,1.70
2019-04-25T15:58:40.362Z,2.10
2019-04-25T16:01:08.536Z,2.10
2019-04-25T16:03:49.625Z,1.80
2019-04-25T16:06:17.267Z,2.23
2019-04-25T16:08:45.539Z,1.80
2019-04-25T16:11:13.282Z,2.40
2019-04-25T16:13:41.099Z,1.70
2019-04-25T16:16:08.951Z,2.30
2019-04-25T16:18:36.754Z,2.53
2019-04-25T16:21:05.008Z,2.73
2019-04-25T16:23:32.760Z,2.37
2019-04-25T16:26:00.967Z,2.10
2019-04-25T16:28:28.901Z,2.93
2019-04-25T16:30:56.939Z,3.40
2019-04-25T16:33:24.634Z,4.13
2019-04-25T16:35:52.324Z,4.33
2019-04-25T16:38:20.009Z,2.33
2019-04-25T16:40:47.716Z,2.43
2019-04-25T16:43:19.594Z,1.83
2019-04-25T16:45:47.548Z,2.03
2019-04-25T16:48:15.882Z,2.00
2019-04-25T16:50:43.687Z,2.07
2019-04-25T16:53:11.405Z,1.83
2019-04-25T16:55:42.067Z,2.00
2019-04-25T16:58:10.086Z,2.20
2019-04-25T17:00:48.061Z,1.40
2019-04-25T17:03:17.768Z,1.90
2019-04-25T17:05:45.747Z,2.10
2019-04-25T17:08:13.896Z,1.80
2019-04-25T17:10:41.701Z,2.03
2019-04-25T17:13:09.959Z,2.17
2019-04-25T17:16:03.428Z,1.77
2019-04-25T17:18:36.568Z,1.87
2019-04-25T17:21:06.244Z,3.83
2019-04-25T17:23:34.511Z,2.30
2019-04-25T17:26:03.128Z,1.70
2019-04-25T17:28:33.113Z,2.13
2019-04-25T17:31:18.100Z,2.10
2019-04-25T17:33:58.891Z,2.70
2019-04-25T17:36:33.745Z,3.13
2019-04-25T17:39:23.568Z,2.07
2019-04-25T17:41:51.398Z,2.10
2019-04-25T17:44:19.207Z,1.97
2019-04-25T17:46:48.255Z,1.00
2019-04-25T17:49:16.186Z,1.07
2019-04-25T17:51:44.071Z,1.23
2019-04-25T17:54:11.911Z,1.53
2019-04-25T17:56:39.723Z,1.40
2019-04-25T17:59:07.525Z,1.37
2019-04-25T18:01:35.990Z,1.70
2019-04-25T18:04:04.222Z,1.67
2019-04-25T18:06:31.972Z,2.02
2019-04-25T18:08:59.716Z,1.80
2019-04-25T18:11:27.541Z,1.70
2019-04-25T18:13:55.381Z,1.50
2019-04-25T18:16:28.640Z,1.40
2019-04-25T18:19:15.898Z,1.80
2019-04-25T18:21:44.931Z,1.60
2019-04-25T18:24:31.404Z,1.40
2019-04-25T18:27:17.184Z,1.77
2019-04-25T18:29:45.034Z,1.90
2019-04-25T18:32:13.345Z,1.70
2019-04-25T18:34:49.903Z,1.70
2019-04-25T18:37:43.305Z,2.23
2019-04-25T18:40:22.085Z,2.70
2019-04-25T18:43:06.627Z,1.90
2019-04-25T18:45:35.835Z,2.03
2019-04-25T18:48:04.788Z,2.23
2019-04-25T18:50:33.538Z,2.10
2019-04-25T18:53:29.803Z,1.80
2019-04-25T18:56:17.177Z,2.00
2019-04-25T18:59:13.264Z,2.23
2019-04-25T19:01:59.061Z,2.00
2019-04-25T19:04:45.009Z,2.20
2019-04-25T19:07:22.102Z,2.50
2019-04-25T19:09:42.892Z,2.13
2019-04-25T19:12:10.833Z,3.50
2019-04-25T19:14:39.907Z,2.70
2019-04-25T19:17:09.367Z,2.80
2019-04-25T19:19:37.132Z,2.00
2019-04-25T19:22:04.951Z,2.33
2019-04-25T19:24:32.706Z,2.20
2019-04-25T19:27:01.300Z,2.47
2019-04-25T19:29:29.126Z,3.00
2019-04-25T19:31:57.147Z,2.83
2019-04-25T19:34:24.848Z,2.63
2019-04-25T19:36:52.543Z,2.80
2019-04-25T19:39:22.324Z,2.40
2019-04-25T19:42:09.463Z,2.87
2019-04-25T19:44:37.307Z,2.77
2019-04-25T19:47:04.993Z,2.40
2019-04-25T19:49:32.755Z,2.97
2019-04-25T19:52:00.450Z,2.50
2019-04-25T19:54:30.085Z,2.47
2019-04-25T19:56:57.815Z,2.37
2019-04-25T19:59:25.498Z,2.00
2019-04-25T20:01:55.099Z,2.40
2019-04-25T20:04:51.159Z,2.37
2019-04-25T20:07:29.288Z,2.87
2019-04-25T20:10:19.323Z,2.20
2019-04-25T20:12:50.508Z,1.67
2019-04-25T20:15:18.003Z,2.10
2019-04-25T20:17:45.993Z,2.20
2019-04-25T20:20:14.253Z,2.53
2019-04-25T20:22:42.044Z,2.43
2019-04-25T20:25:09.954Z,2.77
2019-04-25T20:27:37.731Z,2.80
2019-04-25T20:30:05.983Z,2.00
2019-04-25T20:32:33.960Z,2.13
2019-04-25T20:35:01.808Z,2.03
2019-04-25T20:37:29.645Z,1.93
2019-04-25T20:39:57.594Z,1.77
2019-04-25T20:42:25.367Z,1.80
2019-04-25T20:44:53.758Z,1.73
2019-04-25T20:47:21.528Z,2.00
2019-04-25T20:49:49.563Z,1.80
2019-04-25T20:52:17.363Z,1.50
2019-04-25T20:54:46.450Z,1.73
2019-04-25T20:57:15.055Z,1.60
2019-04-25T20:59:42.797Z,1.53
2019-04-25T21:02:10.591Z,1.73
2019-04-25T21:04:41.718Z,1.37
2019-04-25T21:07:10.390Z,1.60
2019-04-25T21:09:38.743Z,1.40
2019-04-25T21:12:07.411Z,2.23
2019-04-25T21:14:58.280Z,1.63
2019-04-25T21:17:29.991Z,1.70
2019-04-25T21:20:01.412Z,1.60
2019-04-25T21:22:29.288Z,2.40
2019-04-25T21:24:57.939Z,2.00
2019-04-25T21:27:25.999Z,1.93
2019-04-25T21:29:55.620Z,1.73
2019-04-25T21:32:24.103Z,1.50
2019-04-25T21:34:55.192Z,1.43
2019-04-25T21:37:26.007Z,1.40
2019-04-25T21:40:06.768Z,2.00
2019-04-25T21:42:54.249Z,2.00
2019-04-25T21:45:22.259Z,1.87
2019-04-25T21:47:50.363Z,1.73
2019-04-25T21:50:19.757Z,1.50
2019-04-25T21:52:47.820Z,1.60
2019-04-25T21:55:16.080Z,1.37
2019-04-25T21:57:44.015Z,1.70
2019-04-25T22:00:14.864Z,1.10
2019-04-25T22:02:42.992Z,1.47
2019-04-25T22:05:11.709Z,1.30
2019-04-25T22:07:39.931Z,1.13
2019-04-25T22:10:08.133Z,1.43
2019-04-25T22:12:35.851Z,1.27
2019-04-25T22:15:05.750Z,1.90
2019-04-25T22:17:33.537Z,1.47
2019-04-25T22:20:02.245Z,1.70
2019-04-25T22:22:30.884Z,1.77
2019-04-25T22:24:58.637Z,2.00
2019-04-25T22:27:31.126Z,1.60
2019-04-25T22:29:59.883Z,1.47
2019-04-25T22:32:41.542Z,1.37
2019-04-25T22:35:23.404Z,1.30
2019-04-25T22:37:51.228Z,1.17
2019-04-25T22:40:18.879Z,1.40
2019-04-25T22:42:46.782Z,1.33
2019-04-25T22:45:14.669Z,1.87
2019-04-25T22:47:42.459Z,1.77
2019-04-25T22:50:10.687Z,1.27
2019-04-25T22:52:40.686Z,1.20
2019-04-25T22:55:08.655Z,1.47
2019-04-25T22:57:36.654Z,1.50
2019-04-25T23:00:07.451Z,1.80
2019-04-25T23:02:44.002Z,1.23
2019-04-25T23:05:24.427Z,1.50
2019-04-25T23:07:52.200Z,1.23
2019-04-25T23:10:22.764Z,1.37
2019-04-25T23:12:50.077Z,1.40
2019-04-25T23:15:17.789Z,1.30
2019-04-25T23:17:45.960Z,1.37
2019-04-25T23:20:13.982Z,1.33
2019-04-25T23:22:41.702Z,1.40
2019-04-25T23:25:12.037Z,2.00
2019-04-25T23:27:49.185Z,2.10
2019-04-25T23:30:18.823Z,1.87
2019-04-25T23:32:49.891Z,2.13
2019-04-25T23:35:28.433Z,2.37
2019-04-25T23:37:47.180Z,1.90
2019-04-25T23:40:15.860Z,2.30
2019-04-25T23:42:44.168Z,1.90
2019-04-25T23:45:14.521Z,2.23
2019-04-25T23:47:42.560Z,2.00
2019-04-25T23:50:10.673Z,2.37
2019-04-25T23:52:38.868Z,2.33
2019-04-25T23:55:06.776Z,2.13
2019-04-25T23:57:36.622Z,1.90
